sensor_id;sensor_type;location;lat;lon;timestamp;P1;durP1;ratioP1;P2;durP2;ratioP2
50543;SDS011;41176;44.032;20.900;2022-08-19T00:00:05;5.90;;;4.00;;
50543;SDS011;41176;44.032;20.900;2022-08-19T00:02:33;6.72;;;3.88;;
50543;SDS011;41176;44.032;20.900;2022-08-19T00:05:00;5.25;;;3.60;;
50543;SDS011;41176;44.032;20.900;2022-08-19T00:07:26;5.63;;;3.70;;
50543;SDS011;41176;44.032;20.900;2022-08-19T00:09:52;6.35;;;3.95;;
50543;SDS011;41176;44.032;20.900;2022-08-19T00:12:18;5.28;;;3.50;;
50543;SDS011;41176;44.032;20.900;2022-08-19T00:14:45;5.30;;;3.75;;
50543;SDS011;41176;44.032;20.900;2022-08-19T00:17:11;7.82;;;4.25;;
50543;SDS011;41176;44.032;20.900;2022-08-19T00:19:37;5.82;;;3.92;;
50543;SDS011;41176;44.032;20.900;2022-08-19T00:22:03;6.10;;;4.60;;
50543;SDS011;41176;44.032;20.900;2022-08-19T00:24:30;5.65;;;4.03;;
50543;SDS011;41176;44.032;20.900;2022-08-19T00:26:57;7.32;;;4.18;;
50543;SDS011;41176;44.032;20.900;2022-08-19T00:29:24;5.30;;;3.88;;
50543;SDS011;41176;44.032;20.900;2022-08-19T00:31:51;6.72;;;4.13;;
50543;SDS011;41176;44.032;20.900;2022-08-19T00:34:21;9.25;;;4.05;;
50543;SDS011;41176;44.032;20.900;2022-08-19T00:36:48;6.53;;;4.22;;
50543;SDS011;41176;44.032;20.900;2022-08-19T00:39:14;5.57;;;4.05;;
50543;SDS011;41176;44.032;20.900;2022-08-19T00:41:42;5.93;;;4.15;;
50543;SDS011;41176;44.032;20.900;2022-08-19T00:44:10;6.75;;;4.15;;
50543;SDS011;41176;44.032;20.900;2022-08-19T00:46:40;6.43;;;4.13;;
50543;SDS011;41176;44.032;20.900;2022-08-19T00:49:10;6.35;;;4.78;;
50543;SDS011;41176;44.032;20.900;2022-08-19T00:51:42;6.10;;;4.13;;
50543;SDS011;41176;44.032;20.900;2022-08-19T00:54:11;6.03;;;4.43;;
50543;SDS011;41176;44.032;20.900;2022-08-19T00:56:37;7.70;;;4.32;;
50543;SDS011;41176;44.032;20.900;2022-08-19T00:59:04;8.77;;;4.63;;
50543;SDS011;41176;44.032;20.900;2022-08-19T01:01:35;6.45;;;4.55;;
50543;SDS011;41176;44.032;20.900;2022-08-19T01:04:02;6.00;;;4.07;;
50543;SDS011;41176;44.032;20.900;2022-08-19T01:06:28;7.35;;;4.07;;
50543;SDS011;41176;44.032;20.900;2022-08-19T01:08:56;5.90;;;4.35;;
50543;SDS011;41176;44.032;20.900;2022-08-19T01:11:22;8.63;;;4.57;;
50543;SDS011;41176;44.032;20.900;2022-08-19T01:13:47;7.03;;;4.20;;
50543;SDS011;41176;44.032;20.900;2022-08-19T01:16:15;6.22;;;4.47;;
50543;SDS011;41176;44.032;20.900;2022-08-19T01:18:42;8.63;;;4.53;;
50543;SDS011;41176;44.032;20.900;2022-08-19T01:21:29;6.43;;;4.03;;
50543;SDS011;41176;44.032;20.900;2022-08-19T01:24:02;7.93;;;4.60;;
50543;SDS011;41176;44.032;20.900;2022-08-19T01:26:28;5.47;;;3.95;;
50543;SDS011;41176;44.032;20.900;2022-08-19T01:28:56;6.40;;;4.20;;
50543;SDS011;41176;44.032;20.900;2022-08-19T01:31:24;6.32;;;4.40;;
50543;SDS011;41176;44.032;20.900;2022-08-19T01:33:52;7.38;;;3.92;;
50543;SDS011;41176;44.032;20.900;2022-08-19T01:36:38;5.68;;;4.13;;
50543;SDS011;41176;44.032;20.900;2022-08-19T01:39:09;7.07;;;4.70;;
50543;SDS011;41176;44.032;20.900;2022-08-19T01:41:36;7.40;;;3.92;;
50543;SDS011;41176;44.032;20.900;2022-08-19T01:44:02;6.40;;;4.00;;
50543;SDS011;41176;44.032;20.900;2022-08-19T01:46:29;5.57;;;4.00;;
50543;SDS011;41176;44.032;20.900;2022-08-19T01:48:56;5.75;;;4.28;;
50543;SDS011;41176;44.032;20.900;2022-08-19T01:51:22;5.00;;;4.00;;
50543;SDS011;41176;44.032;20.900;2022-08-19T01:53:49;5.43;;;3.88;;
50543;SDS011;41176;44.032;20.900;2022-08-19T01:56:19;6.90;;;4.15;;
50543;SDS011;41176;44.032;20.900;2022-08-19T01:58:47;5.60;;;3.90;;
50543;SDS011;41176;44.032;20.900;2022-08-19T02:03:44;6.80;;;4.07;;
50543;SDS011;41176;44.032;20.900;2022-08-19T02:06:11;6.25;;;4.80;;
50543;SDS011;41176;44.032;20.900;2022-08-19T02:08:37;8.45;;;4.65;;
50543;SDS011;41176;44.032;20.900;2022-08-19T02:11:04;7.10;;;4.65;;
50543;SDS011;41176;44.032;20.900;2022-08-19T02:13:31;6.80;;;4.55;;
50543;SDS011;41176;44.032;20.900;2022-08-19T02:15:58;7.93;;;4.30;;
50543;SDS011;41176;44.032;20.900;2022-08-19T02:18:24;6.88;;;4.35;;
50543;SDS011;41176;44.032;20.900;2022-08-19T02:20:51;9.18;;;4.78;;
50543;SDS011;41176;44.032;20.900;2022-08-19T02:23:17;8.23;;;4.50;;
50543;SDS011;41176;44.032;20.900;2022-08-19T02:25:44;6.88;;;4.40;;
50543;SDS011;41176;44.032;20.900;2022-08-19T02:28:12;7.32;;;4.32;;
50543;SDS011;41176;44.032;20.900;2022-08-19T02:30:40;6.75;;;4.40;;
50543;SDS011;41176;44.032;20.900;2022-08-19T02:33:06;5.45;;;4.00;;
50543;SDS011;41176;44.032;20.900;2022-08-19T02:35:32;5.70;;;3.90;;
50543;SDS011;41176;44.032;20.900;2022-08-19T02:37:58;7.50;;;4.35;;
50543;SDS011;41176;44.032;20.900;2022-08-19T02:40:47;6.05;;;4.10;;
50543;SDS011;41176;44.032;20.900;2022-08-19T02:43:16;7.20;;;3.97;;
50543;SDS011;41176;44.032;20.900;2022-08-19T02:45:42;7.07;;;4.10;;
50543;SDS011;41176;44.032;20.900;2022-08-19T02:48:08;6.50;;;3.83;;
50543;SDS011;41176;44.032;20.900;2022-08-19T02:50:37;7.50;;;4.00;;
50543;SDS011;41176;44.032;20.900;2022-08-19T02:53:03;6.03;;;4.05;;
50543;SDS011;41176;44.032;20.900;2022-08-19T02:55:29;7.38;;;4.30;;
50543;SDS011;41176;44.032;20.900;2022-08-19T02:57:55;7.30;;;3.95;;
50543;SDS011;41176;44.032;20.900;2022-08-19T03:00:22;5.68;;;3.92;;
50543;SDS011;41176;44.032;20.900;2022-08-19T03:02:49;5.65;;;3.97;;
50543;SDS011;41176;44.032;20.900;2022-08-19T03:05:15;6.47;;;3.90;;
50543;SDS011;41176;44.032;20.900;2022-08-19T03:07:40;6.45;;;4.15;;
50543;SDS011;41176;44.032;20.900;2022-08-19T03:10:06;5.60;;;3.60;;
50543;SDS011;41176;44.032;20.900;2022-08-19T03:12:35;5.32;;;3.50;;
50543;SDS011;41176;44.032;20.900;2022-08-19T03:15:03;6.15;;;3.72;;
50543;SDS011;41176;44.032;20.900;2022-08-19T03:17:30;5.80;;;4.13;;
50543;SDS011;41176;44.032;20.900;2022-08-19T03:19:56;5.95;;;3.92;;
50543;SDS011;41176;44.032;20.900;2022-08-19T03:22:22;8.68;;;4.03;;
50543;SDS011;41176;44.032;20.900;2022-08-19T03:24:47;7.25;;;4.25;;
50543;SDS011;41176;44.032;20.900;2022-08-19T03:27:13;5.93;;;4.07;;
50543;SDS011;41176;44.032;20.900;2022-08-19T03:29:39;6.88;;;4.07;;
50543;SDS011;41176;44.032;20.900;2022-08-19T03:32:05;5.40;;;3.92;;
50543;SDS011;41176;44.032;20.900;2022-08-19T03:34:32;6.85;;;4.30;;
50543;SDS011;41176;44.032;20.900;2022-08-19T03:37:03;6.55;;;3.80;;
50543;SDS011;41176;44.032;20.900;2022-08-19T03:39:31;6.70;;;4.05;;
50543;SDS011;41176;44.032;20.900;2022-08-19T03:41:56;7.18;;;4.40;;
50543;SDS011;41176;44.032;20.900;2022-08-19T03:44:25;6.10;;;4.43;;
50543;SDS011;41176;44.032;20.900;2022-08-19T03:46:55;20.77;;;9.95;;
50543;SDS011;41176;44.032;20.900;2022-08-19T03:49:23;24.88;;;9.77;;
50543;SDS011;41176;44.032;20.900;2022-08-19T03:51:53;9.43;;;5.65;;
50543;SDS011;41176;44.032;20.900;2022-08-19T03:54:20;7.72;;;4.80;;
50543;SDS011;41176;44.032;20.900;2022-08-19T03:56:48;12.98;;;5.32;;
50543;SDS011;41176;44.032;20.900;2022-08-19T03:59:17;7.45;;;4.90;;
50543;SDS011;41176;44.032;20.900;2022-08-19T04:01:50;11.75;;;5.40;;
50543;SDS011;41176;44.032;20.900;2022-08-19T04:04:16;9.82;;;5.10;;
50543;SDS011;41176;44.032;20.900;2022-08-19T04:06:42;8.93;;;4.72;;
50543;SDS011;41176;44.032;20.900;2022-08-19T04:09:09;6.88;;;4.45;;
50543;SDS011;41176;44.032;20.900;2022-08-19T04:11:37;7.03;;;4.30;;
50543;SDS011;41176;44.032;20.900;2022-08-19T04:14:07;7.57;;;4.60;;
50543;SDS011;41176;44.032;20.900;2022-08-19T04:16:34;7.32;;;4.05;;
50543;SDS011;41176;44.032;20.900;2022-08-19T04:19:02;7.22;;;4.00;;
50543;SDS011;41176;44.032;20.900;2022-08-19T04:21:29;7.95;;;4.63;;
50543;SDS011;41176;44.032;20.900;2022-08-19T04:23:55;8.40;;;4.75;;
50543;SDS011;41176;44.032;20.900;2022-08-19T04:26:26;8.90;;;5.18;;
50543;SDS011;41176;44.032;20.900;2022-08-19T04:28:57;12.45;;;5.70;;
50543;SDS011;41176;44.032;20.900;2022-08-19T04:31:26;10.35;;;5.45;;
50543;SDS011;41176;44.032;20.900;2022-08-19T04:33:58;10.77;;;5.88;;
50543;SDS011;41176;44.032;20.900;2022-08-19T04:36:28;10.50;;;5.18;;
50543;SDS011;41176;44.032;20.900;2022-08-19T04:38:56;7.32;;;4.10;;
50543;SDS011;41176;44.032;20.900;2022-08-19T04:41:24;5.25;;;3.83;;
50543;SDS011;41176;44.032;20.900;2022-08-19T04:44:09;7.53;;;4.65;;
50543;SDS011;41176;44.032;20.900;2022-08-19T04:46:35;7.68;;;4.32;;
50543;SDS011;41176;44.032;20.900;2022-08-19T04:49:02;5.85;;;3.72;;
50543;SDS011;41176;44.032;20.900;2022-08-19T04:51:30;6.07;;;4.05;;
50543;SDS011;41176;44.032;20.900;2022-08-19T04:53:58;8.18;;;4.78;;
50543;SDS011;41176;44.032;20.900;2022-08-19T04:56:26;6.88;;;4.30;;
50543;SDS011;41176;44.032;20.900;2022-08-19T04:58:53;7.53;;;4.10;;
50543;SDS011;41176;44.032;20.900;2022-08-19T05:01:21;5.45;;;4.00;;
50543;SDS011;41176;44.032;20.900;2022-08-19T05:03:48;5.72;;;4.30;;
50543;SDS011;41176;44.032;20.900;2022-08-19T05:06:15;10.82;;;5.50;;
50543;SDS011;41176;44.032;20.900;2022-08-19T05:08:43;8.50;;;4.90;;
50543;SDS011;41176;44.032;20.900;2022-08-19T05:11:10;6.43;;;4.20;;
50543;SDS011;41176;44.032;20.900;2022-08-19T05:13:54;7.15;;;4.68;;
50543;SDS011;41176;44.032;20.900;2022-08-19T05:16:22;9.15;;;4.60;;
50543;SDS011;41176;44.032;20.900;2022-08-19T05:18:49;6.63;;;4.20;;
50543;SDS011;41176;44.032;20.900;2022-08-19T05:21:34;5.95;;;4.35;;
50543;SDS011;41176;44.032;20.900;2022-08-19T05:24:19;5.78;;;4.00;;
50543;SDS011;41176;44.032;20.900;2022-08-19T05:26:47;6.13;;;4.00;;
50543;SDS011;41176;44.032;20.900;2022-08-19T05:29:15;7.18;;;4.40;;
50543;SDS011;41176;44.032;20.900;2022-08-19T05:31:42;7.25;;;4.60;;
50543;SDS011;41176;44.032;20.900;2022-08-19T05:34:08;8.98;;;4.28;;
50543;SDS011;41176;44.032;20.900;2022-08-19T05:36:39;6.45;;;4.30;;
50543;SDS011;41176;44.032;20.900;2022-08-19T05:39:07;8.60;;;4.32;;
50543;SDS011;41176;44.032;20.900;2022-08-19T05:41:34;7.97;;;4.97;;
50543;SDS011;41176;44.032;20.900;2022-08-19T05:44:01;7.13;;;4.38;;
50543;SDS011;41176;44.032;20.900;2022-08-19T05:46:30;8.02;;;4.28;;
50543;SDS011;41176;44.032;20.900;2022-08-19T05:48:56;7.22;;;4.68;;
50543;SDS011;41176;44.032;20.900;2022-08-19T05:51:23;7.65;;;4.50;;
50543;SDS011;41176;44.032;20.900;2022-08-19T05:53:49;6.75;;;4.70;;
50543;SDS011;41176;44.032;20.900;2022-08-19T05:56:16;6.15;;;4.60;;
50543;SDS011;41176;44.032;20.900;2022-08-19T05:58:43;8.85;;;4.53;;
50543;SDS011;41176;44.032;20.900;2022-08-19T06:01:14;6.05;;;4.10;;
50543;SDS011;41176;44.032;20.900;2022-08-19T06:03:41;7.97;;;4.43;;
50543;SDS011;41176;44.032;20.900;2022-08-19T06:06:08;6.43;;;3.80;;
50543;SDS011;41176;44.032;20.900;2022-08-19T06:08:41;5.38;;;4.30;;
50543;SDS011;41176;44.032;20.900;2022-08-19T06:11:19;7.25;;;4.43;;
50543;SDS011;41176;44.032;20.900;2022-08-19T06:14:00;6.82;;;4.07;;
50543;SDS011;41176;44.032;20.900;2022-08-19T06:16:28;5.53;;;4.15;;
50543;SDS011;41176;44.032;20.900;2022-08-19T06:18:55;7.85;;;4.72;;
50543;SDS011;41176;44.032;20.900;2022-08-19T06:21:25;6.88;;;4.25;;
50543;SDS011;41176;44.032;20.900;2022-08-19T06:23:53;6.53;;;4.25;;
50543;SDS011;41176;44.032;20.900;2022-08-19T06:26:20;6.05;;;4.00;;
50543;SDS011;41176;44.032;20.900;2022-08-19T06:28:47;10.70;;;8.40;;
50543;SDS011;41176;44.032;20.900;2022-08-19T06:31:14;6.75;;;3.92;;
50543;SDS011;41176;44.032;20.900;2022-08-19T06:33:45;7.55;;;4.15;;
50543;SDS011;41176;44.032;20.900;2022-08-19T06:36:32;5.70;;;3.90;;
50543;SDS011;41176;44.032;20.900;2022-08-19T06:39:07;4.63;;;3.30;;
50543;SDS011;41176;44.032;20.900;2022-08-19T06:41:37;6.15;;;4.00;;
50543;SDS011;41176;44.032;20.900;2022-08-19T06:44:05;6.78;;;3.90;;
50543;SDS011;41176;44.032;20.900;2022-08-19T06:46:31;7.22;;;3.80;;
50543;SDS011;41176;44.032;20.900;2022-08-19T06:48:58;6.03;;;3.22;;
50543;SDS011;41176;44.032;20.900;2022-08-19T06:51:25;4.50;;;3.22;;
50543;SDS011;41176;44.032;20.900;2022-08-19T06:53:52;6.47;;;3.53;;
50543;SDS011;41176;44.032;20.900;2022-08-19T06:56:19;5.32;;;3.42;;
50543;SDS011;41176;44.032;20.900;2022-08-19T06:58:50;6.53;;;3.50;;
50543;SDS011;41176;44.032;20.900;2022-08-19T07:01:17;5.22;;;3.30;;
50543;SDS011;41176;44.032;20.900;2022-08-19T07:03:44;6.60;;;3.40;;
50543;SDS011;41176;44.032;20.900;2022-08-19T07:06:12;5.78;;;3.70;;
50543;SDS011;41176;44.032;20.900;2022-08-19T07:08:42;6.00;;;3.22;;
50543;SDS011;41176;44.032;20.900;2022-08-19T07:11:10;6.32;;;3.25;;
50543;SDS011;41176;44.032;20.900;2022-08-19T07:13:43;6.40;;;3.55;;
50543;SDS011;41176;44.032;20.900;2022-08-19T07:16:12;5.05;;;3.33;;
50543;SDS011;41176;44.032;20.900;2022-08-19T07:18:39;5.53;;;4.28;;
50543;SDS011;41176;44.032;20.900;2022-08-19T07:21:06;6.15;;;3.90;;
50543;SDS011;41176;44.032;20.900;2022-08-19T07:23:34;4.50;;;3.13;;
50543;SDS011;41176;44.032;20.900;2022-08-19T07:26:04;6.15;;;3.40;;
50543;SDS011;41176;44.032;20.900;2022-08-19T07:28:41;5.32;;;3.50;;
50543;SDS011;41176;44.032;20.900;2022-08-19T07:31:13;5.72;;;3.75;;
50543;SDS011;41176;44.032;20.900;2022-08-19T07:33:43;8.20;;;3.40;;
50543;SDS011;41176;44.032;20.900;2022-08-19T07:36:09;5.85;;;3.40;;
50543;SDS011;41176;44.032;20.900;2022-08-19T07:38:37;6.13;;;3.85;;
50543;SDS011;41176;44.032;20.900;2022-08-19T07:41:09;7.18;;;3.83;;
50543;SDS011;41176;44.032;20.900;2022-08-19T07:43:37;5.85;;;3.83;;
50543;SDS011;41176;44.032;20.900;2022-08-19T07:46:03;6.45;;;3.88;;
50543;SDS011;41176;44.032;20.900;2022-08-19T07:48:29;4.78;;;3.40;;
50543;SDS011;41176;44.032;20.900;2022-08-19T07:50:57;7.05;;;3.50;;
50543;SDS011;41176;44.032;20.900;2022-08-19T07:53:27;6.93;;;3.70;;
50543;SDS011;41176;44.032;20.900;2022-08-19T07:55:58;4.88;;;3.60;;
50543;SDS011;41176;44.032;20.900;2022-08-19T07:58:29;7.00;;;4.10;;
50543;SDS011;41176;44.032;20.900;2022-08-19T08:01:09;7.10;;;3.67;;
50543;SDS011;41176;44.032;20.900;2022-08-19T08:03:41;4.85;;;3.15;;
50543;SDS011;41176;44.032;20.900;2022-08-19T08:06:25;7.68;;;3.53;;
50543;SDS011;41176;44.032;20.900;2022-08-19T08:09:11;5.00;;;3.15;;
50543;SDS011;41176;44.032;20.900;2022-08-19T08:11:38;6.32;;;3.33;;
50543;SDS011;41176;44.032;20.900;2022-08-19T08:14:05;9.68;;;3.33;;
50543;SDS011;41176;44.032;20.900;2022-08-19T08:16:35;5.20;;;3.15;;
50543;SDS011;41176;44.032;20.900;2022-08-19T08:19:06;5.20;;;3.47;;
50543;SDS011;41176;44.032;20.900;2022-08-19T08:21:32;4.55;;;3.20;;
50543;SDS011;41176;44.032;20.900;2022-08-19T08:23:58;6.47;;;3.55;;
50543;SDS011;41176;44.032;20.900;2022-08-19T08:26:24;5.47;;;3.50;;
50543;SDS011;41176;44.032;20.900;2022-08-19T08:28:51;4.85;;;3.40;;
50543;SDS011;41176;44.032;20.900;2022-08-19T08:31:18;4.70;;;3.50;;
50543;SDS011;41176;44.032;20.900;2022-08-19T08:33:44;4.78;;;3.08;;
50543;SDS011;41176;44.032;20.900;2022-08-19T08:36:12;6.15;;;3.40;;
50543;SDS011;41176;44.032;20.900;2022-08-19T08:38:39;4.68;;;3.25;;
50543;SDS011;41176;44.032;20.900;2022-08-19T08:43:56;4.22;;;3.03;;
50543;SDS011;41176;44.032;20.900;2022-08-19T08:49:24;5.05;;;3.35;;
50543;SDS011;41176;44.032;20.900;2022-08-19T08:55:15;6.18;;;3.40;;
50543;SDS011;41176;44.032;20.900;2022-08-19T09:00:17;9.75;;;3.65;;
50543;SDS011;41176;44.032;20.900;2022-08-19T09:02:45;4.55;;;3.20;;
50543;SDS011;41176;44.032;20.900;2022-08-19T09:05:10;5.38;;;3.35;;
50543;SDS011;41176;44.032;20.900;2022-08-19T09:15:40;5.07;;;3.10;;
50543;SDS011;41176;44.032;20.900;2022-08-19T09:18:10;4.78;;;2.90;;
50543;SDS011;41176;44.032;20.900;2022-08-19T09:20:37;5.88;;;3.65;;
50543;SDS011;41176;44.032;20.900;2022-08-19T09:23:02;5.70;;;3.80;;
50543;SDS011;41176;44.032;20.900;2022-08-19T09:25:29;4.85;;;3.30;;
50543;SDS011;41176;44.032;20.900;2022-08-19T09:27:57;4.22;;;3.28;;
50543;SDS011;41176;44.032;20.900;2022-08-19T09:30:28;7.72;;;3.25;;
50543;SDS011;41176;44.032;20.900;2022-08-19T09:32:58;6.38;;;3.47;;
50543;SDS011;41176;44.032;20.900;2022-08-19T09:35:25;3.58;;;2.40;;
50543;SDS011;41176;44.032;20.900;2022-08-19T09:37:53;4.13;;;2.80;;
50543;SDS011;41176;44.032;20.900;2022-08-19T09:40:21;4.85;;;2.67;;
50543;SDS011;41176;44.032;20.900;2022-08-19T09:42:48;4.32;;;2.55;;
50543;SDS011;41176;44.032;20.900;2022-08-19T09:45:14;5.03;;;2.80;;
50543;SDS011;41176;44.032;20.900;2022-08-19T09:47:42;4.10;;;2.72;;
50543;SDS011;41176;44.032;20.900;2022-08-19T09:50:09;5.05;;;3.05;;
50543;SDS011;41176;44.032;20.900;2022-08-19T09:52:37;4.07;;;2.65;;
50543;SDS011;41176;44.032;20.900;2022-08-19T09:55:04;4.45;;;2.38;;
50543;SDS011;41176;44.032;20.900;2022-08-19T09:57:31;3.70;;;2.30;;
50543;SDS011;41176;44.032;20.900;2022-08-19T09:59:56;4.93;;;2.97;;
50543;SDS011;41176;44.032;20.900;2022-08-19T10:02:23;4.63;;;2.63;;
50543;SDS011;41176;44.032;20.900;2022-08-19T10:04:49;4.13;;;2.70;;
50543;SDS011;41176;44.032;20.900;2022-08-19T10:07:34;5.25;;;2.72;;
50543;SDS011;41176;44.032;20.900;2022-08-19T10:10:02;4.00;;;2.60;;
50543;SDS011;41176;44.032;20.900;2022-08-19T10:12:30;4.47;;;2.50;;
50543;SDS011;41176;44.032;20.900;2022-08-19T10:14:56;6.03;;;2.83;;
50543;SDS011;41176;44.032;20.900;2022-08-19T10:17:21;4.63;;;2.80;;
50543;SDS011;41176;44.032;20.900;2022-08-19T10:19:47;5.30;;;3.10;;
50543;SDS011;41176;44.032;20.900;2022-08-19T10:22:13;3.97;;;2.55;;
50543;SDS011;41176;44.032;20.900;2022-08-19T10:24:39;5.00;;;2.90;;
50543;SDS011;41176;44.032;20.900;2022-08-19T10:27:06;3.97;;;2.83;;
50543;SDS011;41176;44.032;20.900;2022-08-19T10:29:32;5.63;;;3.17;;
50543;SDS011;41176;44.032;20.900;2022-08-19T10:32:03;3.38;;;2.40;;
50543;SDS011;41176;44.032;20.900;2022-08-19T10:34:33;5.13;;;2.67;;
50543;SDS011;41176;44.032;20.900;2022-08-19T10:37:01;6.13;;;2.85;;
50543;SDS011;41176;44.032;20.900;2022-08-19T10:39:30;3.80;;;2.38;;
50543;SDS011;41176;44.032;20.900;2022-08-19T10:41:58;5.68;;;3.03;;
50543;SDS011;41176;44.032;20.900;2022-08-19T10:44:24;4.30;;;2.67;;
50543;SDS011;41176;44.032;20.900;2022-08-19T10:46:50;4.28;;;2.65;;
50543;SDS011;41176;44.032;20.900;2022-08-19T10:49:17;6.30;;;2.72;;
50543;SDS011;41176;44.032;20.900;2022-08-19T10:51:44;3.85;;;2.80;;
50543;SDS011;41176;44.032;20.900;2022-08-19T10:54:28;6.70;;;2.92;;
50543;SDS011;41176;44.032;20.900;2022-08-19T10:57:14;4.80;;;2.80;;
50543;SDS011;41176;44.032;20.900;2022-08-19T10:59:41;6.68;;;3.58;;
50543;SDS011;41176;44.032;20.900;2022-08-19T11:02:07;3.92;;;2.85;;
50543;SDS011;41176;44.032;20.900;2022-08-19T11:04:36;4.13;;;2.75;;
50543;SDS011;41176;44.032;20.900;2022-08-19T11:07:03;4.95;;;2.83;;
50543;SDS011;41176;44.032;20.900;2022-08-19T11:09:30;3.78;;;2.70;;
50543;SDS011;41176;44.032;20.900;2022-08-19T11:11:56;4.43;;;2.70;;
50543;SDS011;41176;44.032;20.900;2022-08-19T11:14:22;6.95;;;2.72;;
50543;SDS011;41176;44.032;20.900;2022-08-19T11:16:50;4.43;;;2.70;;
50543;SDS011;41176;44.032;20.900;2022-08-19T11:19:20;4.50;;;2.90;;
50543;SDS011;41176;44.032;20.900;2022-08-19T11:21:48;6.05;;;2.90;;
50543;SDS011;41176;44.032;20.900;2022-08-19T11:24:16;6.30;;;3.20;;
50543;SDS011;41176;44.032;20.900;2022-08-19T11:26:44;4.90;;;3.08;;
50543;SDS011;41176;44.032;20.900;2022-08-19T11:29:11;4.88;;;3.17;;
50543;SDS011;41176;44.032;20.900;2022-08-19T11:31:39;5.40;;;3.60;;
50543;SDS011;41176;44.032;20.900;2022-08-19T11:34:08;6.32;;;3.00;;
50543;SDS011;41176;44.032;20.900;2022-08-19T11:36:36;5.97;;;2.92;;
50543;SDS011;41176;44.032;20.900;2022-08-19T11:39:07;4.70;;;2.97;;
50543;SDS011;41176;44.032;20.900;2022-08-19T11:41:33;6.57;;;2.78;;
50543;SDS011;41176;44.032;20.900;2022-08-19T11:43:59;4.20;;;2.88;;
50543;SDS011;41176;44.032;20.900;2022-08-19T11:46:27;4.18;;;2.70;;
50543;SDS011;41176;44.032;20.900;2022-08-19T11:48:57;6.05;;;3.15;;
50543;SDS011;41176;44.032;20.900;2022-08-19T11:51:24;6.25;;;3.15;;
50543;SDS011;41176;44.032;20.900;2022-08-19T11:53:52;4.22;;;2.60;;
50543;SDS011;41176;44.032;20.900;2022-08-19T11:56:20;7.35;;;2.85;;
50543;SDS011;41176;44.032;20.900;2022-08-19T11:58:47;5.82;;;3.00;;
50543;SDS011;41176;44.032;20.900;2022-08-19T12:01:14;6.22;;;2.80;;
50543;SDS011;41176;44.032;20.900;2022-08-19T12:03:41;9.05;;;2.95;;
50543;SDS011;41176;44.032;20.900;2022-08-19T12:06:09;5.20;;;2.72;;
50543;SDS011;41176;44.032;20.900;2022-08-19T12:08:38;4.43;;;2.75;;
50543;SDS011;41176;44.032;20.900;2022-08-19T12:11:09;6.25;;;2.80;;
50543;SDS011;41176;44.032;20.900;2022-08-19T12:13:37;4.18;;;2.70;;
50543;SDS011;41176;44.032;20.900;2022-08-19T12:16:10;6.95;;;3.17;;
50543;SDS011;41176;44.032;20.900;2022-08-19T12:18:38;4.95;;;3.20;;
50543;SDS011;41176;44.032;20.900;2022-08-19T12:21:07;8.55;;;3.00;;
50543;SDS011;41176;44.032;20.900;2022-08-19T12:23:35;5.45;;;3.20;;
50543;SDS011;41176;44.032;20.900;2022-08-19T12:26:02;8.40;;;3.35;;
50543;SDS011;41176;44.032;20.900;2022-08-19T12:28:28;5.57;;;3.15;;
50543;SDS011;41176;44.032;20.900;2022-08-19T12:30:55;4.80;;;2.88;;
50543;SDS011;41176;44.032;20.900;2022-08-19T12:33:22;7.55;;;3.05;;
50543;SDS011;41176;44.032;20.900;2022-08-19T12:35:50;4.60;;;2.90;;
50543;SDS011;41176;44.032;20.900;2022-08-19T12:38:16;6.70;;;2.97;;
50543;SDS011;41176;44.032;20.900;2022-08-19T12:40:46;4.53;;;3.15;;
50543;SDS011;41176;44.032;20.900;2022-08-19T12:43:13;5.55;;;3.17;;
50543;SDS011;41176;44.032;20.900;2022-08-19T12:45:40;6.25;;;2.67;;
50543;SDS011;41176;44.032;20.900;2022-08-19T12:48:08;5.53;;;3.45;;
50543;SDS011;41176;44.032;20.900;2022-08-19T12:50:34;5.22;;;2.90;;
50543;SDS011;41176;44.032;20.900;2022-08-19T12:53:00;4.80;;;2.90;;
50543;SDS011;41176;44.032;20.900;2022-08-19T12:55:26;6.88;;;2.80;;
50543;SDS011;41176;44.032;20.900;2022-08-19T12:57:54;4.93;;;2.67;;
50543;SDS011;41176;44.032;20.900;2022-08-19T13:00:20;5.78;;;2.70;;
50543;SDS011;41176;44.032;20.900;2022-08-19T13:02:48;5.18;;;3.20;;
50543;SDS011;41176;44.032;20.900;2022-08-19T13:05:18;4.53;;;2.70;;
50543;SDS011;41176;44.032;20.900;2022-08-19T13:07:51;6.25;;;3.00;;
50543;SDS011;41176;44.032;20.900;2022-08-19T13:10:24;6.20;;;2.80;;
50543;SDS011;41176;44.032;20.900;2022-08-19T13:12:53;6.47;;;2.60;;
50543;SDS011;41176;44.032;20.900;2022-08-19T13:15:20;5.78;;;2.83;;
50543;SDS011;41176;44.032;20.900;2022-08-19T13:17:48;6.70;;;3.08;;
50543;SDS011;41176;44.032;20.900;2022-08-19T13:20:16;4.30;;;2.80;;
50543;SDS011;41176;44.032;20.900;2022-08-19T13:22:45;4.70;;;2.88;;
50543;SDS011;41176;44.032;20.900;2022-08-19T13:25:13;4.53;;;2.90;;
50543;SDS011;41176;44.032;20.900;2022-08-19T13:27:42;4.93;;;2.83;;
50543;SDS011;41176;44.032;20.900;2022-08-19T13:30:09;7.28;;;3.10;;
50543;SDS011;41176;44.032;20.900;2022-08-19T13:32:54;4.53;;;2.78;;
50543;SDS011;41176;44.032;20.900;2022-08-19T13:35:39;6.20;;;2.83;;
50543;SDS011;41176;44.032;20.900;2022-08-19T13:38:09;7.35;;;2.95;;
50543;SDS011;41176;44.032;20.900;2022-08-19T13:40:35;6.63;;;3.10;;
50543;SDS011;41176;44.032;20.900;2022-08-19T13:43:03;4.95;;;2.80;;
50543;SDS011;41176;44.032;20.900;2022-08-19T13:45:30;9.18;;;3.70;;
50543;SDS011;41176;44.032;20.900;2022-08-19T13:48:00;6.03;;;3.10;;
50543;SDS011;41176;44.032;20.900;2022-08-19T13:50:32;6.18;;;3.00;;
50543;SDS011;41176;44.032;20.900;2022-08-19T13:52:59;5.45;;;2.80;;
50543;SDS011;41176;44.032;20.900;2022-08-19T13:55:25;5.85;;;2.40;;
50543;SDS011;41176;44.032;20.900;2022-08-19T13:57:52;4.38;;;2.42;;
50543;SDS011;41176;44.032;20.900;2022-08-19T14:00:20;6.45;;;2.78;;
50543;SDS011;41176;44.032;20.900;2022-08-19T14:02:47;7.13;;;2.72;;
50543;SDS011;41176;44.032;20.900;2022-08-19T14:05:16;5.18;;;2.30;;
50543;SDS011;41176;44.032;20.900;2022-08-19T14:07:42;7.40;;;2.80;;
50543;SDS011;41176;44.032;20.900;2022-08-19T14:10:09;5.70;;;2.70;;
50543;SDS011;41176;44.032;20.900;2022-08-19T14:12:36;5.57;;;2.78;;
50543;SDS011;41176;44.032;20.900;2022-08-19T14:15:02;5.35;;;2.65;;
50543;SDS011;41176;44.032;20.900;2022-08-19T14:17:29;5.13;;;2.95;;
50543;SDS011;41176;44.032;20.900;2022-08-19T14:19:56;8.90;;;2.80;;
50543;SDS011;41176;44.032;20.900;2022-08-19T14:22:24;5.47;;;2.60;;
50543;SDS011;41176;44.032;20.900;2022-08-19T14:24:49;4.38;;;2.55;;
50543;SDS011;41176;44.032;20.900;2022-08-19T14:27:15;6.05;;;2.75;;
50543;SDS011;41176;44.032;20.900;2022-08-19T14:29:41;7.13;;;2.58;;
50543;SDS011;41176;44.032;20.900;2022-08-19T14:32:07;7.38;;;2.85;;
50543;SDS011;41176;44.032;20.900;2022-08-19T14:34:33;7.18;;;3.50;;
50543;SDS011;41176;44.032;20.900;2022-08-19T14:37:02;5.00;;;2.65;;
50543;SDS011;41176;44.032;20.900;2022-08-19T14:39:28;6.40;;;2.80;;
50543;SDS011;41176;44.032;20.900;2022-08-19T14:41:55;8.57;;;2.92;;
50543;SDS011;41176;44.032;20.900;2022-08-19T14:44:21;6.75;;;3.17;;
50543;SDS011;41176;44.032;20.900;2022-08-19T14:46:47;7.45;;;3.13;;
50543;SDS011;41176;44.032;20.900;2022-08-19T14:49:14;4.22;;;2.67;;
50543;SDS011;41176;44.032;20.900;2022-08-19T14:51:40;5.45;;;2.92;;
50543;SDS011;41176;44.032;20.900;2022-08-19T14:54:06;7.20;;;2.95;;
50543;SDS011;41176;44.032;20.900;2022-08-19T14:56:32;5.50;;;3.40;;
50543;SDS011;41176;44.032;20.900;2022-08-19T14:58:59;8.52;;;3.60;;
50543;SDS011;41176;44.032;20.900;2022-08-19T15:01:26;8.55;;;4.22;;